Time;durP1;ratioP1;P1;durP2;ratioP2;P2;SDS_P1;SDS_P2;PMS_P1;PMS_P2;Temp;Humidity;BMP_temperature;BMP_pressure;BME280_temperature;BME280_humidity;BME280_pressure;Samples;Min_cycle;Max_cycle;Signal;HPM_P1;HPM_P2
2023/01/23 00:01:09;;;;;;;10.94;3.31;;;;;;;0.38;56.87;102673.72;449035;116;922881;-71
2023/01/23 00:02:12;;;;;;;6.96;3.36;;;;;;;0.38;56.78;102679.08;448762;118;922659;-73
2023/01/23 00:03:15;;;;;;;4.66;3.37;;;;;;;0.35;56.77;102681.08;448978;118;922419;-74
2023/01/23 00:04:19;;;;;;;4.26;3.86;;;;;;;0.32;56.73;102681.29;454776;116;922526;-76
2023/01/23 00:05:22;;;;;;;5.94;3.53;;;;;;;0.31;56.84;102677.74;456689;116;923067;-75
2023/01/23 00:06:26;;;;;;;5.28;3.58;;;;;;;0.31;56.92;102682.24;456565;115;922483;-74
2023/01/23 00:07:29;;;;;;;5.89;4.62;;;;;;;0.31;56.94;102679.56;454674;116;930542;-74
2023/01/23 00:08:33;;;;;;;8.04;5.16;;;;;;;0.30;57.12;102684.06;448986;117;922540;-75
2023/01/23 00:09:37;;;;;;;9.17;5.25;;;;;;;0.31;57.11;102683.11;448798;114;922513;-76
2023/01/23 00:10:40;;;;;;;9.12;5.15;;;;;;;0.31;57.24;102685.80;449569;116;930522;-76
2023/01/23 00:11:43;;;;;;;11.09;5.17;;;;;;;0.30;57.27;102684.06;455213;116;922538;-74
2023/01/23 00:12:52;;;;;;;9.69;5.36;;;;;;;0.30;57.27;102684.06;456659;116;922581;-74
2023/01/23 00:13:56;;;;;;;11.57;5.99;;;;;;;0.29;57.32;102685.02;451856;116;922488;-74
2023/01/23 00:14:59;;;;;;;14.99;6.88;;;;;;;0.28;57.28;102677.92;452415;117;922792;-74
2023/01/23 00:16:04;;;;;;;12.52;6.57;;;;;;;0.26;57.29;102684.36;452733;116;922617;-74
2023/01/23 00:17:07;;;;;;;11.95;5.56;;;;;;;0.25;57.30;102682.62;456451;115;922532;-75
2023/01/23 00:18:10;;;;;;;6.50;5.15;;;;;;;0.23;57.33;102682.72;448860;117;922733;-75
2023/01/23 00:19:14;;;;;;;7.95;4.99;;;;;;;0.23;57.41;102688.08;449873;116;922452;-76
2023/01/23 00:20:17;;;;;;;9.83;4.58;;;;;;;0.22;57.47;102680.98;447453;118;922482;-74
2023/01/23 00:21:23;;;;;;;7.18;4.04;;;;;;;0.22;57.52;102682.84;449912;116;922458;-76
2023/01/23 00:22:27;;;;;;;6.80;3.82;;;;;;;0.21;57.53;102689.16;456461;115;922824;-73
2023/01/23 00:23:30;;;;;;;4.26;2.88;;;;;;;0.20;57.44;102684.74;456675;116;922556;-74
2023/01/23 00:24:33;;;;;;;4.99;3.33;;;;;;;0.19;57.47;102688.38;454166;116;922593;-74
2023/01/23 00:25:36;;;;;;;5.95;2.92;;;;;;;0.17;57.45;102690.28;448910;117;922597;-74
2023/01/23 00:26:39;;;;;;;5.34;2.83;;;;;;;0.16;57.57;102686.77;453587;116;922565;-72
2023/01/23 00:27:43;;;;;;;6.24;3.26;;;;;;;0.15;57.54;102698.45;456713;116;922683;-75
2023/01/23 00:28:46;;;;;;;6.26;2.95;;;;;;;0.15;57.65;102697.58;456683;116;922486;-77
2023/01/23 00:29:52;;;;;;;5.98;3.13;;;;;;;0.15;57.80;102687.72;454803;116;922577;-76
2023/01/23 00:31:07;;;;;;;6.61;3.01;;;;;;;0.15;57.70;102689.53;451242;116;922618;-73
2023/01/23 00:32:10;;;;;;;4.68;3.03;;;;;;;0.14;57.71;102685.98;448706;118;922573;-73
2023/01/23 00:33:14;;;;;;;4.51;2.99;;;;;;;0.13;57.82;102694.98;448873;118;922778;-76
2023/01/23 00:34:17;;;;;;;6.12;3.03;;;;;;;0.13;57.76;102691.44;448956;118;922506;-73
2023/01/23 00:35:20;;;;;;;4.14;3.14;;;;;;;0.12;57.87;102695.94;451552;116;923348;-73
2023/01/23 00:36:26;;;;;;;8.95;3.06;;;;;;;0.11;57.90;102702.25;451478;116;923268;-75
2023/01/23 00:37:30;;;;;;;4.02;3.16;;;;;;;0.12;57.82;102705.80;456434;116;922858;-75
2023/01/23 00:38:34;;;;;;;4.36;3.40;;;;;;;0.11;57.94;102690.70;456667;116;922573;-74
2023/01/23 00:39:37;;;;;;;9.44;3.16;;;;;;;0.11;57.88;102701.42;456574;115;922538;-74
2023/01/23 00:40:40;;;;;;;8.08;3.57;;;;;;;0.10;57.91;102697.87;456608;114;930503;-75
2023/01/23 00:41:45;;;;;;;4.20;3.11;;;;;;;0.10;58.00;102700.56;454050;116;922513;-75
2023/01/23 00:42:48;;;;;;;8.43;3.41;;;;;;;0.09;57.94;102698.83;456525;116;922601;-75
2023/01/23 00:43:52;;;;;;;4.87;2.81;;;;;;;0.09;57.91;102698.83;456518;116;922554;-75
2023/01/23 00:44:55;;;;;;;5.56;3.07;;;;;;;0.08;58.00;102696.23;456616;116;930500;-74
2023/01/23 00:45:58;;;;;;;5.81;2.84;;;;;;;0.06;57.94;102699.00;455935;116;922879;-75
2023/01/23 00:47:01;;;;;;;6.32;3.15;;;;;;;0.05;58.04;102699.12;456435;116;922556;-74
2023/01/23 00:48:05;;;;;;;6.55;2.78;;;;;;;0.03;58.10;102704.57;455488;116;922700;-76
2023/01/23 00:49:08;;;;;;;4.60;3.31;;;;;;;0.03;58.18;102706.38;450039;116;923085;-74
2023/01/23 00:50:11;;;;;;;5.16;3.19;;;;;;;0.03;58.17;102693.84;449672;116;930485;-74
2023/01/23 00:51:15;;;;;;;4.19;3.16;;;;;;;0.02;58.03;102694.80;446598;118;922974;-77
2023/01/23 00:52:19;;;;;;;6.62;2.98;;;;;;;0.01;58.14;102690.38;436088;120;922566;-76
2023/01/23 00:53:23;;;;;;;5.99;3.35;;;;;;;0.00;58.20;102696.73;435059;120;930568;-76
2023/01/23 00:54:27;;;;;;;4.02;2.53;;;;;;;0.00;58.12;102694.05;434803;120;930496;-75
2023/01/23 00:55:30;;;;;;;4.73;3.58;;;;;;;-0.01;58.18;102693.18;436142;120;922593;-74
2023/01/23 00:56:33;;;;;;;6.34;2.99;;;;;;;-0.02;58.18;102695.95;441589;118;922685;-76
2023/01/23 00:57:36;;;;;;;4.59;2.61;;;;;;;-0.02;58.29;102688.77;442031;120;922974;-76
2023/01/23 00:58:40;;;;;;;5.39;2.79;;;;;;;-0.02;58.31;102694.13;442598;119;922788;-75
2023/01/23 00:59:45;;;;;;;5.87;2.77;;;;;;;-0.03;58.22;102695.08;453498;116;922560;-75
2023/01/23 01:00:48;;;;;;;4.47;2.80;;;;;;;-0.05;58.23;102688.94;452569;116;922493;-75
2023/01/23 01:01:53;;;;;;;8.99;3.08;;;;;;;-0.06;58.20;102695.29;455677;116;922475;-75
2023/01/23 01:02:56;;;;;;;7.21;2.96;;;;;;;-0.07;58.18;102688.20;455723;116;922651;-75
2023/01/23 01:04:00;;;;;;;6.08;2.95;;;;;;;-0.08;58.26;102682.92;456890;116;922679;-75
2023/01/23 01:05:05;;;;;;;5.51;2.88;;;;;;;-0.08;58.44;102682.92;457328;116;922542;-75
2023/01/23 01:06:10;;;;;;;5.51;3.16;;;;;;;-0.07;58.38;102692.69;452128;114;930520;-75
2023/01/23 01:07:13;;;;;;;5.15;3.06;;;;;;;-0.05;58.37;102688.08;449799;116;922932;-76
2023/01/23 01:08:16;;;;;;;3.91;2.62;;;;;;;-0.07;58.43;102680.16;449466;118;923017;-75
2023/01/23 01:09:20;;;;;;;6.28;2.93;;;;;;;-0.07;58.41;102690.87;449835;116;922552;-75
2023/01/23 01:10:28;;;;;;;6.11;3.23;;;;;;;-0.09;58.47;102684.73;449639;118;923175;-75
2023/01/23 01:11:28;;;;;;;6.36;3.18;;;;;;;-0.08;58.46;102680.23;452186;114;922470;-75
2023/01/23 01:12:33;;;;;;;5.64;3.43;;;;;;;-0.07;58.43;102687.33;457258;114;922615;-77
2023/01/23 01:13:36;;;;;;;4.21;3.02;;;;;;;-0.08;58.45;102685.59;455815;116;922507;-76
2023/01/23 01:14:39;;;;;;;5.20;2.77;;;;;;;-0.08;58.56;102682.92;455675;116;922927;-75
2023/01/23 01:15:43;;;;;;;4.71;3.36;;;;;;;-0.08;58.48;102680.23;455343;116;930421;-76
2023/01/23 01:16:46;;;;;;;5.91;3.28;;;;;;;-0.08;58.54;102691.83;456672;113;923274;-76
2023/01/23 01:17:52;;;;;;;5.55;3.00;;;;;;;-0.08;58.62;102694.51;453698;116;922797;-75
2023/01/23 01:18:55;;;;;;;7.83;3.40;;;;;;;-0.09;58.58;102689.23;440424;120;922689;-76
2023/01/23 01:19:58;;;;;;;3.54;2.84;;;;;;;-0.09;58.67;102692.78;447220;115;922609;-76
2023/01/23 01:21:07;;;;;;;7.12;3.31;;;;;;;-0.11;58.60;102692.00;458460;114;922471;-76
2023/01/23 01:22:10;;;;;;;5.96;3.23;;;;;;;-0.12;58.70;102690.30;455746;114;922985;-74
2023/01/23 01:23:14;;;;;;;3.76;3.19;;;;;;;-0.12;58.71;102692.12;457501;116;922543;-75
2023/01/23 01:24:18;;;;;;;9.09;3.05;;;;;;;-0.12;58.67;102697.48;456817;115;922449;-75
2023/01/23 01:25:21;;;;;;;6.49;3.19;;;;;;;-0.13;58.66;102701.97;455876;116;922435;-77
2023/01/23 01:26:25;;;;;;;6.03;2.88;;;;;;;-0.13;58.77;102701.11;452026;115;922526;-75
2023/01/23 01:27:28;;;;;;;5.53;3.19;;;;;;;-0.15;58.69;102700.33;454517;114;930662;-76
2023/01/23 01:28:33;;;;;;;7.71;3.06;;;;;;;-0.16;58.79;102704.83;449513;118;930482;-77
2023/01/23 01:29:36;;;;;;;6.57;3.58;;;;;;;-0.17;58.73;102711.17;450431;116;930532;-76
2023/01/23 01:30:40;;;;;;;9.93;3.50;;;;;;;-0.19;58.82;102705.03;453706;116;922489;-76
2023/01/23 01:31:44;;;;;;;7.15;2.85;;;;;;;-0.20;58.85;102703.30;455828;114;930434;-75
2023/01/23 01:32:47;;;;;;;4.49;2.55;;;;;;;-0.20;58.92;102705.98;453967;116;922534;-76
2023/01/23 01:33:50;;;;;;;7.84;2.98;;;;;;;-0.20;58.92;102715.83;455720;115;922859;-75
2023/01/23 01:34:54;;;;;;;13.14;3.52;;;;;;;-0.20;58.97;102713.16;454702;116;928876;-76
2023/01/23 01:35:57;;;;;;;6.13;2.94;;;;;;;-0.21;58.96;102706.06;455352;116;922433;-74
2023/01/23 01:37:01;;;;;;;5.92;2.81;;;;;;;-0.22;58.85;102707.05;455728;114;922561;-75
2023/01/23 01:38:04;;;;;;;3.56;3.11;;;;;;;-0.22;58.91;102712.41;457361;116;925565;-75
2023/01/23 01:39:07;;;;;;;5.59;3.08;;;;;;;-0.24;59.03;102707.13;450953;116;922576;-74
2023/01/23 01:40:17;;;;;;;7.33;3.68;;;;;;;-0.27;59.03;102704.62;449538;118;922557;-74
2023/01/23 01:41:21;;;;;;;6.22;3.22;;;;;;;-0.28;59.08;102705.59;451707;114;922812;-75
2023/01/23 01:42:27;;;;;;;4.86;2.83;;;;;;;-0.28;59.10;102702.05;457371;114;922667;-73
2023/01/23 01:43:30;;;;;;;6.09;3.34;;;;;;;-0.30;59.13;102710.17;457309;116;923023;-72
2023/01/23 01:44:49;;;;;;;5.98;2.99;;;;;;;-0.31;59.05;102711.13;457439;116;922568;-75
2023/01/23 01:46:23;;;;;;;3.52;2.92;;;;;;;-0.21;59.19;102704.25;474701;109;946866;-74
2023/01/23 01:47:27;;;;;;;4.51;3.29;;;;;;;-0.35;59.11;102711.41;465220;112;922549;-74
2023/01/23 01:48:56;;;;;;;6.94;3.50;;;;;;;-0.38;59.26;102709.77;465524;113;922744;-73
2023/01/23 01:50:03;;;;;;;6.81;3.98;;;;;;;-0.39;59.19;102707.20;463737;113;922918;-74
2023/01/23 01:51:09;;;;;;;6.03;3.21;;;;;;;-0.43;59.23;102702.00;467907;112;922625;-76
2023/01/23 01:52:14;;;;;;;3.98;2.71;;;;;;;-0.45;59.39;102698.58;464811;113;922579;-71
2023/01/23 01:53:20;;;;;;;5.13;3.02;;;;;;;-0.48;59.34;102704.10;469859;112;923134;-72
2023/01/23 01:54:36;;;;;;;6.83;3.42;;;;;;;-0.49;59.46;102701.50;465586;113;923042;-77
2023/01/23 01:55:39;;;;;;;7.06;3.72;;;;;;;-0.51;59.50;102701.62;466252;112;922484;-79
2023/01/23 01:56:46;;;;;;;6.13;4.08;;;;;;;-0.53;59.46;102699.97;462480;113;922568;-75
2023/01/23 01:57:53;;;;;;;4.37;3.00;;;;;;;-0.54;59.60;102700.92;466556;111;930633;-76
2023/01/23 01:58:56;;;;;;;4.18;3.45;;;;;;;-0.54;59.52;102703.59;470972;112;922557;-75
2023/01/23 02:00:09;;;;;;;7.19;3.08;;;;;;;-0.55;59.67;102700.05;466237;113;922417;-75
2023/01/23 02:01:20;;;;;;;6.18;3.47;;;;;;;-0.56;59.59;102697.48;464212;111;922797;-77
2023/01/23 02:02:30;;;;;;;4.05;2.87;;;;;;;-0.58;59.72;102697.57;457833;114;922876;-75
2023/01/23 02:03:34;;;;;;;4.32;3.29;;;;;;;-0.57;59.72;102701.11;464023;113;922483;-76
2023/01/23 02:04:40;;;;;;;9.78;2.89;;;;;;;-0.58;59.74;102705.61;462471;113;923322;-74
2023/01/23 02:05:47;;;;;;;6.78;3.68;;;;;;;-0.57;59.76;102707.34;465119;114;930497;-74
2023/01/23 02:06:52;;;;;;;6.31;3.26;;;;;;;-0.56;59.91;102700.17;467151;112;922950;-75
2023/01/23 02:08:14;;;;;;;4.86;3.33;;;;;;;-0.56;59.91;102698.35;462912;113;923105;-75
2023/01/23 02:09:22;;;;;;;5.96;3.40;;;;;;;-0.56;59.85;102701.03;462953;114;922466;-74
2023/01/23 02:10:26;;;;;;;8.71;3.84;;;;;;;-0.56;59.96;102710.88;452071;116;922824;-75
2023/01/23 02:11:29;;;;;;;7.03;3.69;;;;;;;-0.56;60.00;102705.52;448596;116;922867;-75
2023/01/23 02:12:34;;;;;;;6.55;3.17;;;;;;;-0.56;59.93;102705.52;460248;111;922658;-75
2023/01/23 02:13:39;;;;;;;6.12;3.31;;;;;;;-0.58;59.95;102705.61;469282;111;922528;-75
2023/01/23 02:14:42;;;;;;;5.11;3.20;;;;;;;-0.57;60.08;102704.66;465069;111;922918;-75
2023/01/23 02:15:46;;;;;;;4.23;3.24;;;;;;;-0.58;60.03;102697.57;470893;112;922554;-75
2023/01/23 02:16:51;;;;;;;5.22;3.11;;;;;;;-0.57;60.01;102703.80;464804;112;922855;-75
2023/01/23 02:17:55;;;;;;;5.67;3.86;;;;;;;-0.57;60.12;102707.34;463162;112;922667;-76
2023/01/23 02:19:01;;;;;;;9.11;3.02;;;;;;;-0.56;60.06;102706.39;464977;112;922734;-75
2023/01/23 02:20:23;;;;;;;6.78;3.67;;;;;;;-0.55;60.06;102708.09;459244;115;922623;-75
2023/01/23 02:21:27;;;;;;;3.66;3.27;;;;;;;-0.54;60.16;102709.83;456848;114;922689;-75
2023/01/23 02:22:44;;;;;;;6.03;3.16;;;;;;;-0.54;60.15;102712.50;458444;113;922491;-75
2023/01/23 02:24:00;;;;;;;6.11;3.69;;;;;;;-0.54;60.15;102712.50;464679;113;922226;-74
2023/01/23 02:25:07;;;;;;;4.03;3.70;;;;;;;-0.55;60.06;102709.94;461074;113;922256;-76
2023/01/23 02:26:17;;;;;;;6.02;3.26;;;;;;;-0.56;60.14;102717.11;461811;112;922217;-74
2023/01/23 02:27:20;;;;;;;4.07;3.03;;;;;;;-0.57;60.11;102710.02;463898;112;922078;-74
2023/01/23 02:28:26;;;;;;;4.67;3.46;;;;;;;-0.57;60.16;102712.70;464293;112;922287;-73
2023/01/23 02:29:42;;;;;;;6.17;4.02;;;;;;;-0.58;60.25;102710.97;463052;114;922361;-76
2023/01/23 02:30:46;;;;;;;8.89;3.64;;;;;;;-0.57;60.24;102714.52;465508;113;922483;-76
2023/01/23 02:31:51;;;;;;;4.87;2.93;;;;;;;-0.59;60.28;102717.27;464261;112;922997;-74
2023/01/23 02:33:11;;;;;;;3.78;3.45;;;;;;;-0.59;60.29;102717.27;464983;114;922635;-74
2023/01/23 02:34:14;;;;;;;7.73;3.61;;;;;;;-0.58;60.35;102721.69;464672;114;922451;-75
2023/01/23 02:35:25;;;;;;;5.72;3.92;;;;;;;-0.59;60.34;102717.27;465449;113;922472;-75
2023/01/23 02:36:32;;;;;;;4.95;3.06;;;;;;;-0.59;60.28;102717.27;462373;111;922514;-74
2023/01/23 02:37:39;;;;;;;4.21;3.38;;;;;;;-0.59;60.30;102717.27;448225;115;922999;-75
2023/01/23 02:38:47;;;;;;;5.38;4.03;;;;;;;-0.57;60.37;102711.83;451926;115;922581;-76
2023/01/23 02:39:51;;;;;;;5.98;3.43;;;;;;;-0.57;60.37;102710.02;465403;112;922719;-76
2023/01/23 02:40:57;;;;;;;4.39;2.96;;;;;;;-0.56;60.44;102719.79;457745;114;923048;-75
2023/01/23 02:42:03;;;;;;;4.95;3.49;;;;;;;-0.54;60.45;102722.35;464874;112;922607;-75
2023/01/23 02:43:23;;;;;;;4.27;3.19;;;;;;;-0.54;60.39;102717.00;465606;112;922743;-73
2023/01/23 02:44:32;;;;;;;5.36;3.48;;;;;;;-0.54;60.43;102722.35;464839;114;922741;-76
2023/01/23 02:45:38;;;;;;;4.40;3.22;;;;;;;-0.54;60.37;102722.35;463503;113;922551;-74
2023/01/23 02:46:43;;;;;;;7.39;3.07;;;;;;;-0.54;60.41;102719.67;468131;112;922565;-73
2023/01/23 02:47:46;;;;;;;5.74;3.20;;;;;;;-0.53;60.53;102724.95;466077;112;922598;-73
2023/01/23 02:48:50;;;;;;;4.65;3.65;;;;;;;-0.52;60.48;102724.00;467702;112;922519;-72
2023/01/23 02:49:53;;;;;;;4.41;3.42;;;;;;;-0.51;60.50;102724.87;462190;114;930631;-72
2023/01/23 02:50:56;;;;;;;6.16;3.37;;;;;;;-0.52;60.39;102718.64;461663;114;922637;-72
2023/01/23 02:52:00;;;;;;;6.94;4.03;;;;;;;-0.52;60.40;102732.04;458143;113;922470;-73
2023/01/23 02:53:05;;;;;;;5.64;3.58;;;;;;;-0.52;60.49;102733.86;463924;112;922570;-72
2023/01/23 02:54:08;;;;;;;6.39;3.49;;;;;;;-0.53;60.46;102724.95;468296;113;922633;-72
2023/01/23 02:55:11;;;;;;;6.16;3.89;;;;;;;-0.52;60.58;102720.45;467114;113;922468;-72
2023/01/23 02:56:15;;;;;;;6.84;3.60;;;;;;;-0.51;60.49;102730.23;463041;113;922546;-72
2023/01/23 02:57:18;;;;;;;6.96;3.58;;;;;;;-0.51;60.55;102730.23;454733;114;923810;-73
2023/01/23 03:01:06;;;;;;;3.92;3.45;;;;;;;-0.53;60.53;102727.63;465656;112;922567;-71
2023/01/23 03:02:09;;;;;;;4.90;3.39;;;;;;;-0.55;60.54;102728.69;458827;113;922933;-74
2023/01/23 03:03:14;;;;;;;4.76;3.69;;;;;;;-0.55;60.58;102729.52;464042;111;922536;-72
2023/01/23 03:04:18;;;;;;;5.41;4.17;;;;;;;-0.56;60.45;102732.32;470231;111;922891;-72
2023/01/23 03:05:21;;;;;;;4.25;3.45;;;;;;;-0.57;60.49;102730.59;464947;113;922644;-72
2023/01/23 03:06:27;;;;;;;6.56;3.73;;;;;;;-0.57;60.53;102733.27;457116;113;922554;-74
2023/01/23 03:07:30;;;;;;;7.53;4.05;;;;;;;-0.56;60.50;102737.67;457058;114;922612;-72
2023/01/23 03:08:35;;;;;;;4.81;3.88;;;;;;;-0.58;60.40;102743.12;458167;114;930436;-72
2023/01/23 03:09:38;;;;;;;7.66;3.70;;;;;;;-0.59;60.52;102741.39;461678;112;922532;-72
2023/01/23 03:10:42;;;;;;;6.87;4.18;;;;;;;-0.59;60.42;102744.06;462783;113;923154;-75
2023/01/23 03:11:46;;;;;;;5.04;3.84;;;;;;;-0.60;60.52;102742.33;464390;113;922573;-73
2023/01/23 03:12:49;;;;;;;4.56;3.59;;;;;;;-0.59;60.58;102743.20;461005;113;923010;-73
2023/01/23 03:13:52;;;;;;;4.44;4.02;;;;;;;-0.58;60.62;102747.61;465777;113;930801;-73
2023/01/23 03:14:57;;;;;;;4.31;3.55;;;;;;;-0.57;60.63;102743.98;466481;113;922511;-72
2023/01/23 03:16:00;;;;;;;5.42;3.37;;;;;;;-0.57;60.57;102746.66;464144;114;931309;-72
2023/01/23 03:17:04;;;;;;;4.58;3.65;;;;;;;-0.57;60.58;102750.20;453272;114;922941;-72
2023/01/23 03:18:09;;;;;;;4.27;3.52;;;;;;;-0.57;60.63;102744.84;446108;116;930580;-72
2023/01/23 03:19:12;;;;;;;4.36;3.33;;;;;;;-0.57;60.50;102750.20;456070;116;922885;-72
2023/01/23 03:20:18;;;;;;;4.72;3.67;;;;;;;-0.57;60.61;102743.98;464428;112;922706;-74
2023/01/23 03:21:22;;;;;;;5.72;4.04;;;;;;;-0.57;60.61;102743.98;464538;112;923146;-72
2023/01/23 03:22:25;;;;;;;5.01;3.51;;;;;;;-0.59;60.59;102745.88;452900;116;922634;-72
2023/01/23 03:23:29;;;;;;;5.09;3.96;;;;;;;-0.60;60.53;102749.50;450192;116;930491;-73
2023/01/23 03:24:33;;;;;;;6.62;4.29;;;;;;;-0.61;60.51;102737.95;447728;117;922442;-74
2023/01/23 03:25:38;;;;;;;8.06;4.29;;;;;;;-0.61;60.67;102747.80;453235;115;922988;-72
2023/01/23 03:26:43;;;;;;;5.88;4.63;;;;;;;-0.62;60.70;102746.07;447185;116;922498;-73
2023/01/23 03:27:47;;;;;;;5.41;4.36;;;;;;;-0.63;60.79;102747.88;459084;114;922499;-74
2023/01/23 03:30:14;;;;;;;6.28;4.07;;;;;;;-0.64;60.80;102751.52;453592;116;930897;-71
2023/01/23 03:31:17;;;;;;;7.93;3.85;;;;;;;-0.65;60.73;102749.78;451972;115;923020;-72
2023/01/23 03:32:21;;;;;;;4.62;3.62;;;;;;;-0.65;60.80;102760.50;455443;113;922830;-72
2023/01/23 03:33:24;;;;;;;8.12;3.74;;;;;;;-0.66;60.75;102757.92;455571;116;923558;-72
2023/01/23 03:34:29;;;;;;;6.23;3.68;;;;;;;-0.66;60.78;102761.44;453867;116;922926;-72
2023/01/23 03:35:33;;;;;;;5.74;4.17;;;;;;;-0.67;60.93;102759.74;447783;117;922790;-73
2023/01/23 03:36:37;;;;;;;4.49;3.75;;;;;;;-0.66;60.94;102758.77;447895;116;923125;-72
2023/01/23 03:37:41;;;;;;;4.62;3.72;;;;;;;-0.66;60.89;102764.12;465195;112;922498;-72
2023/01/23 03:41:28;;;;;;;5.77;4.07;;;;;;;-0.66;60.97;102757.92;464682;111;922607;-72
2023/01/23 03:42:33;;;;;;;6.08;3.99;;;;;;;-0.68;60.95;102767.86;462782;113;922338;-72
2023/01/23 03:43:36;;;;;;;6.72;3.59;;;;;;;-0.70;61.01;102762.58;452297;116;922568;-72
2023/01/23 03:44:40;;;;;;;4.79;3.71;;;;;;;-0.70;60.96;102770.61;453112;116;922646;-73
2023/01/23 03:45:43;;;;;;;5.33;3.58;;;;;;;-0.68;61.01;102765.18;457726;115;930339;-73
2023/01/23 03:46:50;;;;;;;6.33;4.27;;;;;;;-0.68;61.09;102775.89;462969;113;922276;-73
2023/01/23 03:47:53;;;;;;;6.82;4.03;;;;;;;-0.67;61.00;102775.81;461876;112;922172;-75
2023/01/23 03:48:56;;;;;;;5.20;4.11;;;;;;;-0.66;60.99;102768.64;461012;112;922245;-75
2023/01/23 03:49:59;;;;;;;4.40;3.35;;;;;;;-0.67;61.07;102775.81;473787;112;922140;-75
2023/01/23 03:51:06;;;;;;;5.14;4.46;;;;;;;-0.66;61.11;102780.19;469537;112;922261;-75
2023/01/23 03:52:09;;;;;;;4.32;3.92;;;;;;;-0.66;61.05;102780.19;464378;113;922193;-76
2023/01/23 03:53:13;;;;;;;5.94;4.52;;;;;;;-0.66;61.05;102780.19;465035;111;922073;-75
2023/01/23 03:54:16;;;;;;;6.59;4.01;;;;;;;-0.64;60.99;102772.08;463543;112;922286;-75
2023/01/23 03:55:20;;;;;;;5.09;4.24;;;;;;;-0.65;61.02;102773.89;458645;114;922311;-76
2023/01/23 03:56:23;;;;;;;4.40;3.98;;;;;;;-0.65;61.02;102773.89;467560;112;930410;-75
2023/01/23 03:57:26;;;;;;;5.40;3.92;;;;;;;-0.64;61.00;102775.63;473629;111;922606;-76
2023/01/23 03:58:37;;;;;;;8.93;3.99;;;;;;;-0.64;61.10;102777.44;467527;111;922265;-76
2023/01/23 03:59:40;;;;;;;4.77;4.22;;;;;;;-0.64;60.96;102774.75;464149;111;922339;-75
2023/01/23 04:00:44;;;;;;;4.60;4.07;;;;;;;-0.65;61.12;102787.28;466137;113;922573;-75
2023/01/23 04:01:47;;;;;;;5.25;4.15;;;;;;;-0.64;61.10;102788.15;463559;113;923020;-75
2023/01/23 04:02:50;;;;;;;4.97;3.77;;;;;;;-0.64;61.10;102788.15;462846;113;930404;-75
2023/01/23 04:03:54;;;;;;;4.80;4.39;;;;;;;-0.64;61.23;102783.66;461146;114;930740;-74
2023/01/23 04:04:57;;;;;;;7.53;4.39;;;;;;;-0.63;61.16;102785.39;463118;113;922177;-74
2023/01/23 04:06:01;;;;;;;8.93;4.47;;;;;;;-0.62;61.16;102788.94;454746;116;930514;-74
2023/01/23 04:07:04;;;;;;;8.12;4.22;;;;;;;-0.61;61.26;102786.18;459545;112;930409;-74
2023/01/23 04:08:08;;;;;;;5.68;4.84;;;;;;;-0.62;61.28;102776.41;466674;111;930378;-74
2023/01/23 04:09:12;;;;;;;5.98;4.42;;;;;;;-0.60;61.30;102787.01;465818;113;922534;-76
2023/01/23 04:10:15;;;;;;;5.81;3.69;;;;;;;-0.60;61.32;102785.20;461110;113;922461;-75
2023/01/23 04:11:20;;;;;;;5.71;4.53;;;;;;;-0.60;61.22;102790.56;458447;113;930286;-76
2023/01/23 04:12:23;;;;;;;5.02;4.43;;;;;;;-0.59;61.32;102788.74;464798;111;930705;-76
2023/01/23 04:13:26;;;;;;;4.99;4.16;;;;;;;-0.58;61.31;102790.48;465888;111;922433;-75
2023/01/23 04:14:31;;;;;;;4.25;3.85;;;;;;;-0.58;61.19;102787.80;465502;113;922278;-76
2023/01/23 04:15:35;;;;;;;6.75;3.85;;;;;;;-0.58;61.29;102788.66;461046;113;923016;-73
2023/01/23 04:16:40;;;;;;;7.66;4.36;;;;;;;-0.58;61.18;102783.30;465478;112;922410;-76
2023/01/23 04:17:44;;;;;;;14.18;4.69;;;;;;;-0.58;61.08;102787.80;453850;114;922437;-75
2023/01/23 04:18:51;;;;;;;6.12;4.21;;;;;;;-0.58;61.05;102791.34;452408;114;922895;-75
2023/01/23 04:19:54;;;;;;;6.36;4.40;;;;;;;-0.59;61.11;102792.29;463319;113;922927;-75
2023/01/23 04:20:57;;;;;;;4.29;3.87;;;;;;;-0.60;61.03;102779.84;463553;112;922490;-77
2023/01/23 04:22:01;;;;;;;4.64;4.06;;;;;;;-0.61;61.11;102783.50;466381;112;922739;-75
2023/01/23 04:23:06;;;;;;;6.81;4.96;;;;;;;-0.60;61.11;102784.33;462640;113;930458;-74
2023/01/23 04:24:09;;;;;;;4.34;3.92;;;;;;;-0.62;61.18;102787.13;465339;114;922558;-72
2023/01/23 04:25:12;;;;;;;4.64;3.90;;;;;;;-0.62;61.12;102789.80;463161;113;922909;-72
2023/01/23 04:26:16;;;;;;;5.86;4.56;;;;;;;-0.62;61.26;102788.94;464040;113;922557;-77
2023/01/23 04:27:19;;;;;;;9.34;4.89;;;;;;;-0.63;61.30;102788.07;463024;112;930410;-76
2023/01/23 04:28:22;;;;;;;5.55;4.58;;;;;;;-0.63;61.25;102785.39;468982;111;922566;-75
2023/01/23 04:29:25;;;;;;;5.18;4.70;;;;;;;-0.64;61.30;102786.34;459259;114;923399;-75
2023/01/23 04:30:29;;;;;;;4.79;4.26;;;;;;;-0.66;61.27;102788.23;459491;114;922591;-74
2023/01/23 04:31:34;;;;;;;7.47;4.07;;;;;;;-0.65;61.27;102783.73;458687;114;922899;-74
2023/01/23 04:32:38;;;;;;;4.71;4.24;;;;;;;-0.68;61.31;102784.80;461091;114;922709;-75
2023/01/23 04:33:41;;;;;;;4.84;4.44;;;;;;;-0.69;61.25;102791.09;459559;114;922634;-75
2023/01/23 04:34:44;;;;;;;5.52;5.02;;;;;;;-0.69;61.25;102799.14;463543;114;930594;-76
2023/01/23 04:35:51;;;;;;;5.43;4.87;;;;;;;-0.70;61.36;102796.53;460389;113;922950;-73
2023/01/23 04:36:55;;;;;;;5.11;4.63;;;;;;;-0.71;61.34;102792.99;452861;115;922735;-75
2023/01/23 04:37:58;;;;;;;5.46;4.66;;;;;;;-0.72;61.34;102790.42;458425;113;922605;-75
2023/01/23 04:39:02;;;;;;;6.37;4.18;;;;;;;-0.73;61.38;102794.05;458783;114;930649;-75
2023/01/23 04:40:09;;;;;;;4.86;4.43;;;;;;;-0.73;61.45;102788.69;454041;114;922640;-74
2023/01/23 04:41:23;;;;;;;6.09;4.92;;;;;;;-0.75;61.40;102790.58;465730;113;922531;-73
2023/01/23 04:42:28;;;;;;;5.79;5.04;;;;;;;-0.77;61.51;102793.34;457318;113;923427;-75
2023/01/23 04:43:38;;;;;;;;;;;;;;;-0.78;61.50;102794.31;464213;113;922090;-74
2023/01/23 04:44:43;;;;;;;5.54;4.82;;;;;;;-0.80;61.52;102796.20;466106;112;922359;-73
2023/01/23 04:45:57;;;;;;;5.06;4.63;;;;;;;-0.86;61.45;102793.88;469808;111;922526;-74
2023/01/23 04:47:19;;;;;;;6.85;4.65;;;;;;;-0.91;61.62;102799.50;462009;111;922417;-75
2023/01/23 04:48:23;;;;;;;5.52;4.85;;;;;;;-0.93;61.76;102808.55;462486;112;922483;-75
2023/01/23 04:49:27;;;;;;;5.03;4.46;;;;;;;-0.94;61.83;102801.50;452422;114;923619;-72
2023/01/23 04:50:31;;;;;;;5.04;4.58;;;;;;;-0.94;61.87;102806.85;451315;116;930551;-74
2023/01/23 04:51:36;;;;;;;5.93;5.36;;;;;;;-0.94;61.87;102809.53;461286;112;923105;-73
2023/01/23 04:52:40;;;;;;;5.50;4.74;;;;;;;-0.94;61.92;102806.85;457821;115;922527;-74
2023/01/23 04:53:43;;;;;;;5.71;4.67;;;;;;;-0.94;61.91;102805.00;459343;114;922630;-74
2023/01/23 04:54:46;;;;;;;5.34;4.56;;;;;;;-0.93;61.78;102803.20;457525;114;930934;-73
2023/01/23 04:55:49;;;;;;;5.64;5.06;;;;;;;-0.93;61.74;102796.03;465842;112;922343;-74
2023/01/23 04:56:53;;;;;;;5.20;4.59;;;;;;;-0.93;61.82;102806.73;466633;112;922520;-72
2023/01/23 04:57:56;;;;;;;5.47;4.39;;;;;;;-0.93;61.76;102805.87;464102;113;924776;-72
2023/01/23 04:59:01;;;;;;;5.56;4.51;;;;;;;-0.93;61.88;102797.84;455656;115;922686;-75
2023/01/23 05:00:05;;;;;;;5.01;4.55;;;;;;;-0.95;61.87;102800.63;457147;113;922811;-73
2023/01/23 05:01:09;;;;;;;5.56;5.08;;;;;;;-0.94;61.76;102793.47;465529;113;922631;-74
2023/01/23 05:02:12;;;;;;;7.61;4.86;;;;;;;-0.95;61.83;102805.98;458864;114;922724;-79
2023/01/23 05:03:18;;;;;;;5.57;4.39;;;;;;;-0.96;61.77;102806.06;458724;112;922825;-75
2023/01/23 05:04:22;;;;;;;5.07;4.61;;;;;;;-0.96;61.85;102803.39;461426;113;923023;-76
2023/01/23 05:05:26;;;;;;;5.86;5.19;;;;;;;-0.97;61.78;102801.66;459128;113;922899;-75
2023/01/23 05:06:31;;;;;;;7.54;4.92;;;;;;;-0.98;61.90;102808.81;463187;114;930633;-72
2023/01/23 05:07:34;;;;;;;5.37;4.87;;;;;;;-0.97;61.83;102804.33;464769;114;922653;-74